sensor_id;sensor_type;location;lat;lon;timestamp;P1;durP1;ratioP1;P2;durP2;ratioP2
34565;SDS011;20803;42.676;26.348;2024-03-22T00:01:43;2.20;;;2.00;;
34565;SDS011;20803;42.676;26.348;2024-03-22T00:04:10;4.03;;;2.00;;
34565;SDS011;20803;42.676;26.348;2024-03-22T00:06:35;3.10;;;2.10;;
34565;SDS011;20803;42.676;26.348;2024-03-22T00:09:01;2.97;;;2.40;;
34565;SDS011;20803;42.676;26.348;2024-03-22T00:11:27;2.97;;;2.37;;
34565;SDS011;20803;42.676;26.348;2024-03-22T00:13:52;3.27;;;2.60;;
34565;SDS011;20803;42.676;26.348;2024-03-22T00:16:18;5.23;;;2.90;;
34565;SDS011;20803;42.676;26.348;2024-03-22T00:18:43;3.00;;;2.37;;
34565;SDS011;20803;42.676;26.348;2024-03-22T00:21:09;4.47;;;2.40;;
34565;SDS011;20803;42.676;26.348;2024-03-22T00:23:34;3.30;;;2.60;;
34565;SDS011;20803;42.676;26.348;2024-03-22T00:26:00;2.87;;;2.33;;
34565;SDS011;20803;42.676;26.348;2024-03-22T00:28:25;2.93;;;2.50;;
34565;SDS011;20803;42.676;26.348;2024-03-22T00:30:50;2.80;;;2.10;;
34565;SDS011;20803;42.676;26.348;2024-03-22T00:33:16;2.80;;;2.20;;
34565;SDS011;20803;42.676;26.348;2024-03-22T00:35:42;3.10;;;2.23;;
34565;SDS011;20803;42.676;26.348;2024-03-22T00:38:07;3.67;;;2.40;;
34565;SDS011;20803;42.676;26.348;2024-03-22T00:40:33;3.63;;;2.70;;
34565;SDS011;20803;42.676;26.348;2024-03-22T00:42:58;2.80;;;2.10;;
34565;SDS011;20803;42.676;26.348;2024-03-22T00:45:24;4.43;;;2.23;;
34565;SDS011;20803;42.676;26.348;2024-03-22T00:47:49;2.43;;;2.17;;
34565;SDS011;20803;42.676;26.348;2024-03-22T00:50:15;2.97;;;2.43;;
34565;SDS011;20803;42.676;26.348;2024-03-22T00:52:40;2.93;;;2.43;;
34565;SDS011;20803;42.676;26.348;2024-03-22T00:55:06;2.20;;;2.00;;
34565;SDS011;20803;42.676;26.348;2024-03-22T00:57:32;3.03;;;2.30;;
34565;SDS011;20803;42.676;26.348;2024-03-22T00:59:58;3.37;;;2.40;;
34565;SDS011;20803;42.676;26.348;2024-03-22T01:02:23;3.27;;;2.53;;
34565;SDS011;20803;42.676;26.348;2024-03-22T01:04:49;3.30;;;2.53;;
34565;SDS011;20803;42.676;26.348;2024-03-22T01:07:15;3.10;;;2.47;;
34565;SDS011;20803;42.676;26.348;2024-03-22T01:09:40;2.67;;;2.30;;
34565;SDS011;20803;42.676;26.348;2024-03-22T01:12:09;2.70;;;2.20;;
34565;SDS011;20803;42.676;26.348;2024-03-22T01:14:35;3.03;;;2.27;;
34565;SDS011;20803;42.676;26.348;2024-03-22T01:17:01;3.60;;;2.43;;
34565;SDS011;20803;42.676;26.348;2024-03-22T01:19:27;2.63;;;1.97;;
34565;SDS011;20803;42.676;26.348;2024-03-22T01:21:53;3.27;;;2.53;;
34565;SDS011;20803;42.676;26.348;2024-03-22T01:24:18;2.87;;;2.57;;
34565;SDS011;20803;42.676;26.348;2024-03-22T01:26:44;2.97;;;2.30;;
34565;SDS011;20803;42.676;26.348;2024-03-22T01:29:09;3.20;;;2.40;;
34565;SDS011;20803;42.676;26.348;2024-03-22T01:31:35;3.17;;;2.60;;
34565;SDS011;20803;42.676;26.348;2024-03-22T01:34:00;3.47;;;2.73;;
34565;SDS011;20803;42.676;26.348;2024-03-22T01:36:26;3.83;;;2.50;;
34565;SDS011;20803;42.676;26.348;2024-03-22T01:38:51;3.00;;;2.47;;
34565;SDS011;20803;42.676;26.348;2024-03-22T01:41:17;3.87;;;2.97;;
34565;SDS011;20803;42.676;26.348;2024-03-22T01:43:43;3.10;;;2.50;;
34565;SDS011;20803;42.676;26.348;2024-03-22T01:46:09;3.37;;;2.20;;
34565;SDS011;20803;42.676;26.348;2024-03-22T01:48:35;3.13;;;2.20;;
34565;SDS011;20803;42.676;26.348;2024-03-22T01:51:01;3.57;;;2.43;;
34565;SDS011;20803;42.676;26.348;2024-03-22T01:53:29;3.27;;;2.47;;
34565;SDS011;20803;42.676;26.348;2024-03-22T01:55:55;4.43;;;2.60;;
34565;SDS011;20803;42.676;26.348;2024-03-22T01:58:21;3.40;;;2.50;;
34565;SDS011;20803;42.676;26.348;2024-03-22T02:00:47;2.93;;;2.40;;
34565;SDS011;20803;42.676;26.348;2024-03-22T02:03:12;3.40;;;2.70;;
34565;SDS011;20803;42.676;26.348;2024-03-22T02:05:38;3.07;;;2.70;;
34565;SDS011;20803;42.676;26.348;2024-03-22T02:08:04;3.47;;;2.60;;
34565;SDS011;20803;42.676;26.348;2024-03-22T02:10:30;3.10;;;2.33;;
34565;SDS011;20803;42.676;26.348;2024-03-22T02:12:55;3.93;;;2.90;;
34565;SDS011;20803;42.676;26.348;2024-03-22T02:15:21;3.50;;;2.57;;
34565;SDS011;20803;42.676;26.348;2024-03-22T02:17:47;3.03;;;2.13;;
34565;SDS011;20803;42.676;26.348;2024-03-22T02:20:12;3.03;;;2.57;;
34565;SDS011;20803;42.676;26.348;2024-03-22T02:22:38;6.20;;;2.80;;
34565;SDS011;20803;42.676;26.348;2024-03-22T02:25:04;3.20;;;2.53;;
34565;SDS011;20803;42.676;26.348;2024-03-22T02:27:29;3.40;;;2.57;;
34565;SDS011;20803;42.676;26.348;2024-03-22T02:29:55;2.80;;;2.00;;
34565;SDS011;20803;42.676;26.348;2024-03-22T02:32:21;2.50;;;2.20;;
34565;SDS011;20803;42.676;26.348;2024-03-22T02:34:47;2.90;;;2.50;;
34565;SDS011;20803;42.676;26.348;2024-03-22T02:37:12;2.47;;;2.20;;
34565;SDS011;20803;42.676;26.348;2024-03-22T02:39:38;2.97;;;2.43;;
34565;SDS011;20803;42.676;26.348;2024-03-22T02:42:03;2.47;;;2.10;;
34565;SDS011;20803;42.676;26.348;2024-03-22T02:44:29;4.70;;;2.40;;
34565;SDS011;20803;42.676;26.348;2024-03-22T02:46:54;2.27;;;2.07;;
34565;SDS011;20803;42.676;26.348;2024-03-22T02:49:20;3.10;;;2.33;;
34565;SDS011;20803;42.676;26.348;2024-03-22T02:51:45;3.27;;;2.17;;
34565;SDS011;20803;42.676;26.348;2024-03-22T02:54:11;4.33;;;2.80;;
34565;SDS011;20803;42.676;26.348;2024-03-22T02:56:36;2.77;;;2.27;;
34565;SDS011;20803;42.676;26.348;2024-03-22T02:59:02;3.13;;;2.33;;
34565;SDS011;20803;42.676;26.348;2024-03-22T03:01:27;4.43;;;2.90;;
34565;SDS011;20803;42.676;26.348;2024-03-22T03:03:53;3.67;;;2.70;;
34565;SDS011;20803;42.676;26.348;2024-03-22T03:06:18;4.20;;;3.00;;
34565;SDS011;20803;42.676;26.348;2024-03-22T03:08:45;4.70;;;3.20;;
34565;SDS011;20803;42.676;26.348;2024-03-22T03:11:11;5.50;;;3.33;;
34565;SDS011;20803;42.676;26.348;2024-03-22T03:13:36;4.10;;;3.23;;
34565;SDS011;20803;42.676;26.348;2024-03-22T03:16:02;4.27;;;3.80;;
34565;SDS011;20803;42.676;26.348;2024-03-22T03:18:28;4.20;;;3.50;;
34565;SDS011;20803;42.676;26.348;2024-03-22T03:20:53;4.70;;;3.90;;
34565;SDS011;20803;42.676;26.348;2024-03-22T03:23:19;6.30;;;4.03;;
34565;SDS011;20803;42.676;26.348;2024-03-22T03:25:45;6.30;;;4.60;;
34565;SDS011;20803;42.676;26.348;2024-03-22T03:28:11;6.97;;;4.10;;
34565;SDS011;20803;42.676;26.348;2024-03-22T03:30:37;4.73;;;3.97;;
34565;SDS011;20803;42.676;26.348;2024-03-22T03:33:03;6.17;;;4.80;;
34565;SDS011;20803;42.676;26.348;2024-03-22T03:35:28;4.40;;;3.40;;
34565;SDS011;20803;42.676;26.348;2024-03-22T03:37:54;4.83;;;3.83;;
34565;SDS011;20803;42.676;26.348;2024-03-22T03:40:20;4.40;;;3.23;;
34565;SDS011;20803;42.676;26.348;2024-03-22T03:42:47;5.97;;;3.60;;
34565;SDS011;20803;42.676;26.348;2024-03-22T03:45:12;4.40;;;3.50;;
34565;SDS011;20803;42.676;26.348;2024-03-22T03:47:38;4.93;;;3.57;;
34565;SDS011;20803;42.676;26.348;2024-03-22T03:50:03;5.27;;;4.03;;
34565;SDS011;20803;42.676;26.348;2024-03-22T03:52:29;6.07;;;3.60;;
34565;SDS011;20803;42.676;26.348;2024-03-22T03:54:55;5.07;;;3.77;;
34565;SDS011;20803;42.676;26.348;2024-03-22T03:57:20;5.07;;;4.00;;
34565;SDS011;20803;42.676;26.348;2024-03-22T03:59:46;7.93;;;4.07;;
34565;SDS011;20803;42.676;26.348;2024-03-22T04:02:11;4.40;;;3.70;;
34565;SDS011;20803;42.676;26.348;2024-03-22T04:04:37;4.13;;;3.23;;
34565;SDS011;20803;42.676;26.348;2024-03-22T04:07:03;4.23;;;3.37;;
34565;SDS011;20803;42.676;26.348;2024-03-22T04:09:29;3.90;;;2.97;;
34565;SDS011;20803;42.676;26.348;2024-03-22T04:11:56;3.33;;;3.03;;
34565;SDS011;20803;42.676;26.348;2024-03-22T04:14:24;4.43;;;3.23;;
34565;SDS011;20803;42.676;26.348;2024-03-22T04:16:50;3.43;;;2.73;;
34565;SDS011;20803;42.676;26.348;2024-03-22T04:19:15;4.80;;;3.47;;
34565;SDS011;20803;42.676;26.348;2024-03-22T04:21:41;4.60;;;3.43;;
34565;SDS011;20803;42.676;26.348;2024-03-22T04:24:07;6.23;;;4.37;;
34565;SDS011;20803;42.676;26.348;2024-03-22T04:26:32;6.70;;;4.73;;
34565;SDS011;20803;42.676;26.348;2024-03-22T04:28:58;6.40;;;4.37;;
34565;SDS011;20803;42.676;26.348;2024-03-22T04:31:23;8.13;;;5.40;;
34565;SDS011;20803;42.676;26.348;2024-03-22T04:33:49;10.23;;;6.77;;
34565;SDS011;20803;42.676;26.348;2024-03-22T04:36:15;7.20;;;5.47;;
34565;SDS011;20803;42.676;26.348;2024-03-22T04:38:40;6.20;;;4.67;;
34565;SDS011;20803;42.676;26.348;2024-03-22T04:41:06;6.13;;;4.07;;
34565;SDS011;20803;42.676;26.348;2024-03-22T04:43:31;6.80;;;4.20;;
34565;SDS011;20803;42.676;26.348;2024-03-22T04:45:57;7.10;;;4.90;;
34565;SDS011;20803;42.676;26.348;2024-03-22T04:48:23;6.13;;;4.00;;
34565;SDS011;20803;42.676;26.348;2024-03-22T04:50:49;7.33;;;4.70;;
34565;SDS011;20803;42.676;26.348;2024-03-22T04:53:19;6.70;;;4.97;;
34565;SDS011;20803;42.676;26.348;2024-03-22T04:55:49;4.70;;;4.20;;
34565;SDS011;20803;42.676;26.348;2024-03-22T04:58:15;4.57;;;4.00;;
34565;SDS011;20803;42.676;26.348;2024-03-22T05:00:46;4.40;;;3.93;;
34565;SDS011;20803;42.676;26.348;2024-03-22T05:03:12;5.37;;;4.00;;
34565;SDS011;20803;42.676;26.348;2024-03-22T05:05:38;5.33;;;3.80;;
34565;SDS011;20803;42.676;26.348;2024-03-22T05:08:03;3.90;;;2.87;;
34565;SDS011;20803;42.676;26.348;2024-03-22T05:10:30;4.93;;;3.53;;
34565;SDS011;20803;42.676;26.348;2024-03-22T05:12:56;4.87;;;3.30;;
34565;SDS011;20803;42.676;26.348;2024-03-22T05:15:22;5.63;;;3.93;;
34565;SDS011;20803;42.676;26.348;2024-03-22T05:17:48;5.87;;;4.17;;
34565;SDS011;20803;42.676;26.348;2024-03-22T05:20:14;4.57;;;3.47;;
34565;SDS011;20803;42.676;26.348;2024-03-22T05:22:41;4.40;;;3.50;;
34565;SDS011;20803;42.676;26.348;2024-03-22T05:25:07;5.67;;;4.30;;
34565;SDS011;20803;42.676;26.348;2024-03-22T05:27:33;4.07;;;3.67;;
34565;SDS011;20803;42.676;26.348;2024-03-22T05:29:59;4.73;;;3.47;;
34565;SDS011;20803;42.676;26.348;2024-03-22T05:32:25;3.90;;;3.37;;
34565;SDS011;20803;42.676;26.348;2024-03-22T05:34:51;11.10;;;5.40;;
34565;SDS011;20803;42.676;26.348;2024-03-22T05:37:17;11.90;;;7.30;;
34565;SDS011;20803;42.676;26.348;2024-03-22T05:39:43;13.33;;;8.67;;
34565;SDS011;20803;42.676;26.348;2024-03-22T05:42:08;11.03;;;6.13;;
34565;SDS011;20803;42.676;26.348;2024-03-22T05:44:34;7.70;;;6.40;;
34565;SDS011;20803;42.676;26.348;2024-03-22T05:47:00;8.00;;;6.07;;
34565;SDS011;20803;42.676;26.348;2024-03-22T05:49:26;8.87;;;5.93;;
34565;SDS011;20803;42.676;26.348;2024-03-22T05:51:51;6.70;;;5.37;;
34565;SDS011;20803;42.676;26.348;2024-03-22T05:54:17;8.03;;;6.07;;
34565;SDS011;20803;42.676;26.348;2024-03-22T05:56:43;7.00;;;5.00;;
34565;SDS011;20803;42.676;26.348;2024-03-22T05:59:08;7.27;;;5.70;;
34565;SDS011;20803;42.676;26.348;2024-03-22T06:01:35;7.87;;;6.00;;
34565;SDS011;20803;42.676;26.348;2024-03-22T06:04:01;26.57;;;14.97;;
34565;SDS011;20803;42.676;26.348;2024-03-22T06:06:27;26.10;;;15.00;;
34565;SDS011;20803;42.676;26.348;2024-03-22T06:08:52;23.17;;;12.70;;
34565;SDS011;20803;42.676;26.348;2024-03-22T06:11:19;19.77;;;11.50;;
34565;SDS011;20803;42.676;26.348;2024-03-22T06:13:46;20.20;;;11.13;;
34565;SDS011;20803;42.676;26.348;2024-03-22T06:16:12;16.90;;;9.07;;
34565;SDS011;20803;42.676;26.348;2024-03-22T06:18:38;10.10;;;6.63;;
34565;SDS011;20803;42.676;26.348;2024-03-22T06:21:04;7.60;;;5.33;;
34565;SDS011;20803;42.676;26.348;2024-03-22T06:23:30;14.97;;;5.93;;
34565;SDS011;20803;42.676;26.348;2024-03-22T06:25:56;5.90;;;4.27;;
34565;SDS011;20803;42.676;26.348;2024-03-22T06:28:22;7.67;;;4.77;;
34565;SDS011;20803;42.676;26.348;2024-03-22T06:30:48;9.87;;;5.13;;
34565;SDS011;20803;42.676;26.348;2024-03-22T06:33:14;7.60;;;4.70;;
34565;SDS011;20803;42.676;26.348;2024-03-22T06:35:40;8.43;;;4.67;;
34565;SDS011;20803;42.676;26.348;2024-03-22T06:38:06;10.57;;;4.50;;
34565;SDS011;20803;42.676;26.348;2024-03-22T06:40:32;8.83;;;4.67;;
34565;SDS011;20803;42.676;26.348;2024-03-22T06:42:58;8.80;;;4.70;;
34565;SDS011;20803;42.676;26.348;2024-03-22T06:45:23;18.10;;;6.03;;
34565;SDS011;20803;42.676;26.348;2024-03-22T06:47:49;12.70;;;5.03;;
34565;SDS011;20803;42.676;26.348;2024-03-22T06:50:14;11.13;;;4.20;;
34565;SDS011;20803;42.676;26.348;2024-03-22T06:52:42;15.43;;;4.87;;
34565;SDS011;20803;42.676;26.348;2024-03-22T06:55:08;11.63;;;4.50;;
34565;SDS011;20803;42.676;26.348;2024-03-22T06:57:34;11.30;;;4.23;;
34565;SDS011;20803;42.676;26.348;2024-03-22T07:00:00;9.93;;;4.47;;
34565;SDS011;20803;42.676;26.348;2024-03-22T07:02:25;12.23;;;4.67;;
34565;SDS011;20803;42.676;26.348;2024-03-22T07:04:51;13.00;;;4.87;;
34565;SDS011;20803;42.676;26.348;2024-03-22T07:07:17;11.77;;;5.40;;
34565;SDS011;20803;42.676;26.348;2024-03-22T07:09:43;14.70;;;4.20;;
34565;SDS011;20803;42.676;26.348;2024-03-22T07:12:09;9.60;;;4.63;;
34565;SDS011;20803;42.676;26.348;2024-03-22T07:14:35;11.30;;;3.87;;
34565;SDS011;20803;42.676;26.348;2024-03-22T07:17:00;10.40;;;3.77;;
34565;SDS011;20803;42.676;26.348;2024-03-22T07:19:26;13.40;;;4.77;;
34565;SDS011;20803;42.676;26.348;2024-03-22T07:21:53;7.57;;;4.93;;
34565;SDS011;20803;42.676;26.348;2024-03-22T07:24:19;9.07;;;4.13;;
34565;SDS011;20803;42.676;26.348;2024-03-22T07:26:44;10.17;;;3.97;;
34565;SDS011;20803;42.676;26.348;2024-03-22T07:29:11;7.07;;;3.67;;
34565;SDS011;20803;42.676;26.348;2024-03-22T07:31:37;5.13;;;3.07;;
34565;SDS011;20803;42.676;26.348;2024-03-22T07:34:02;8.43;;;3.93;;
34565;SDS011;20803;42.676;26.348;2024-03-22T07:36:28;5.10;;;3.60;;
34565;SDS011;20803;42.676;26.348;2024-03-22T07:38:55;5.03;;;3.70;;
34565;SDS011;20803;42.676;26.348;2024-03-22T07:41:23;7.73;;;3.57;;
34565;SDS011;20803;42.676;26.348;2024-03-22T07:43:48;5.97;;;3.47;;
34565;SDS011;20803;42.676;26.348;2024-03-22T07:46:14;4.47;;;3.30;;
34565;SDS011;20803;42.676;26.348;2024-03-22T07:48:39;5.27;;;3.50;;
34565;SDS011;20803;42.676;26.348;2024-03-22T07:51:05;7.67;;;3.37;;
34565;SDS011;20803;42.676;26.348;2024-03-22T07:53:30;5.40;;;2.93;;
34565;SDS011;20803;42.676;26.348;2024-03-22T07:55:56;3.90;;;2.97;;
34565;SDS011;20803;42.676;26.348;2024-03-22T07:58:21;5.50;;;2.77;;
34565;SDS011;20803;42.676;26.348;2024-03-22T08:00:47;6.27;;;3.60;;
34565;SDS011;20803;42.676;26.348;2024-03-22T08:03:15;3.03;;;2.23;;
34565;SDS011;20803;42.676;26.348;2024-03-22T08:05:41;7.67;;;3.40;;
34565;SDS011;20803;42.676;26.348;2024-03-22T08:08:06;2.40;;;2.20;;
34565;SDS011;20803;42.676;26.348;2024-03-22T08:10:32;3.37;;;2.33;;
34565;SDS011;20803;42.676;26.348;2024-03-22T08:12:58;4.27;;;2.40;;
34565;SDS011;20803;42.676;26.348;2024-03-22T08:15:23;2.40;;;2.20;;
34565;SDS011;20803;42.676;26.348;2024-03-22T08:17:49;3.87;;;2.30;;
34565;SDS011;20803;42.676;26.348;2024-03-22T08:20:14;6.60;;;3.67;;
34565;SDS011;20803;42.676;26.348;2024-03-22T08:22:40;4.00;;;2.80;;
34565;SDS011;20803;42.676;26.348;2024-03-22T08:25:05;3.40;;;2.63;;
34565;SDS011;20803;42.676;26.348;2024-03-22T08:27:33;4.63;;;2.83;;
34565;SDS011;20803;42.676;26.348;2024-03-22T08:29:59;3.50;;;2.50;;
34565;SDS011;20803;42.676;26.348;2024-03-22T08:32:25;4.17;;;2.50;;
34565;SDS011;20803;42.676;26.348;2024-03-22T08:34:50;2.20;;;2.00;;
34565;SDS011;20803;42.676;26.348;2024-03-22T08:37:16;1.70;;;1.60;;
34565;SDS011;20803;42.676;26.348;2024-03-22T08:39:41;1.83;;;1.70;;
34565;SDS011;20803;42.676;26.348;2024-03-22T08:42:07;1.87;;;1.57;;
34565;SDS011;20803;42.676;26.348;2024-03-22T08:44:34;2.13;;;1.93;;
34565;SDS011;20803;42.676;26.348;2024-03-22T08:47:00;3.00;;;2.00;;
34565;SDS011;20803;42.676;26.348;2024-03-22T08:49:25;3.13;;;2.40;;
34565;SDS011;20803;42.676;26.348;2024-03-22T08:51:51;2.50;;;2.30;;
34565;SDS011;20803;42.676;26.348;2024-03-22T08:54:16;2.97;;;2.23;;
34565;SDS011;20803;42.676;26.348;2024-03-22T08:56:42;2.10;;;1.80;;
34565;SDS011;20803;42.676;26.348;2024-03-22T08:59:07;4.57;;;2.63;;
34565;SDS011;20803;42.676;26.348;2024-03-22T09:01:33;5.07;;;2.00;;
34565;SDS011;20803;42.676;26.348;2024-03-22T09:03:59;4.23;;;2.60;;
34565;SDS011;20803;42.676;26.348;2024-03-22T09:06:24;5.43;;;2.90;;
34565;SDS011;20803;42.676;26.348;2024-03-22T09:08:50;5.80;;;3.30;;
34565;SDS011;20803;42.676;26.348;2024-03-22T09:11:15;4.20;;;2.30;;
34565;SDS011;20803;42.676;26.348;2024-03-22T09:13:41;3.13;;;2.00;;
34565;SDS011;20803;42.676;26.348;2024-03-22T09:16:06;6.77;;;3.17;;
34565;SDS011;20803;42.676;26.348;2024-03-22T09:18:32;8.83;;;4.03;;
34565;SDS011;20803;42.676;26.348;2024-03-22T09:20:58;5.03;;;3.37;;
34565;SDS011;20803;42.676;26.348;2024-03-22T09:23:23;5.37;;;2.63;;
34565;SDS011;20803;42.676;26.348;2024-03-22T09:25:49;7.63;;;3.00;;
34565;SDS011;20803;42.676;26.348;2024-03-22T09:28:14;3.97;;;2.63;;
34565;SDS011;20803;42.676;26.348;2024-03-22T09:30:40;4.13;;;2.30;;
34565;SDS011;20803;42.676;26.348;2024-03-22T09:33:06;2.23;;;1.80;;
34565;SDS011;20803;42.676;26.348;2024-03-22T09:35:34;2.53;;;2.33;;
34565;SDS011;20803;42.676;26.348;2024-03-22T09:38:00;2.47;;;2.20;;
34565;SDS011;20803;42.676;26.348;2024-03-22T09:40:27;2.53;;;1.93;;
34565;SDS011;20803;42.676;26.348;2024-03-22T09:42:53;2.57;;;2.10;;
34565;SDS011;20803;42.676;26.348;2024-03-22T09:45:19;2.03;;;1.83;;
34565;SDS011;20803;42.676;26.348;2024-03-22T09:47:45;2.10;;;1.70;;
34565;SDS011;20803;42.676;26.348;2024-03-22T09:50:13;1.90;;;1.70;;
34565;SDS011;20803;42.676;26.348;2024-03-22T09:52:39;3.67;;;1.77;;
34565;SDS011;20803;42.676;26.348;2024-03-22T09:55:07;2.53;;;2.10;;
34565;SDS011;20803;42.676;26.348;2024-03-22T09:57:37;3.30;;;1.80;;
34565;SDS011;20803;42.676;26.348;2024-03-22T10:00:08;2.73;;;2.10;;
34565;SDS011;20803;42.676;26.348;2024-03-22T10:02:34;4.03;;;2.00;;
34565;SDS011;20803;42.676;26.348;2024-03-22T10:05:00;2.37;;;1.70;;
34565;SDS011;20803;42.676;26.348;2024-03-22T10:07:27;2.37;;;1.60;;
34565;SDS011;20803;42.676;26.348;2024-03-22T10:09:57;1.80;;;1.70;;
34565;SDS011;20803;42.676;26.348;2024-03-22T10:12:23;1.70;;;1.60;;
34565;SDS011;20803;42.676;26.348;2024-03-22T10:14:50;1.80;;;1.70;;
34565;SDS011;20803;42.676;26.348;2024-03-22T10:17:17;1.63;;;1.40;;
34565;SDS011;20803;42.676;26.348;2024-03-22T10:19:43;1.57;;;1.47;;
34565;SDS011;20803;42.676;26.348;2024-03-22T10:22:09;1.70;;;1.60;;
34565;SDS011;20803;42.676;26.348;2024-03-22T10:24:34;1.67;;;1.57;;
34565;SDS011;20803;42.676;26.348;2024-03-22T10:27:00;1.43;;;1.33;;
34565;SDS011;20803;42.676;26.348;2024-03-22T10:29:26;1.60;;;1.50;;
34565;SDS011;20803;42.676;26.348;2024-03-22T10:31:52;2.83;;;1.50;;
34565;SDS011;20803;42.676;26.348;2024-03-22T10:34:19;3.10;;;2.50;;
34565;SDS011;20803;42.676;26.348;2024-03-22T10:36:46;4.27;;;2.67;;
34565;SDS011;20803;42.676;26.348;2024-03-22T10:39:13;3.57;;;2.60;;
34565;SDS011;20803;42.676;26.348;2024-03-22T10:41:42;4.10;;;2.97;;
34565;SDS011;20803;42.676;26.348;2024-03-22T10:44:08;5.80;;;3.43;;
34565;SDS011;20803;42.676;26.348;2024-03-22T10:46:34;4.37;;;2.40;;
34565;SDS011;20803;42.676;26.348;2024-03-22T10:49:00;4.43;;;2.80;;
34565;SDS011;20803;42.676;26.348;2024-03-22T10:51:30;3.97;;;2.30;;
34565;SDS011;20803;42.676;26.348;2024-03-22T10:53:56;3.40;;;2.30;;
34565;SDS011;20803;42.676;26.348;2024-03-22T10:56:24;4.63;;;2.37;;
34565;SDS011;20803;42.676;26.348;2024-03-22T10:58:50;4.47;;;2.30;;
34565;SDS011;20803;42.676;26.348;2024-03-22T11:01:24;6.07;;;2.53;;
34565;SDS011;20803;42.676;26.348;2024-03-22T11:03:50;3.23;;;2.33;;
34565;SDS011;20803;42.676;26.348;2024-03-22T11:06:19;3.70;;;2.40;;
34565;SDS011;20803;42.676;26.348;2024-03-22T11:08:49;4.03;;;2.00;;
34565;SDS011;20803;42.676;26.348;2024-03-22T11:11:17;2.47;;;2.00;;
34565;SDS011;20803;42.676;26.348;2024-03-22T11:13:46;2.33;;;2.10;;
34565;SDS011;20803;42.676;26.348;2024-03-22T11:16:15;1.90;;;1.70;;
34565;SDS011;20803;42.676;26.348;2024-03-22T11:18:42;15.20;;;2.60;;
34565;SDS011;20803;42.676;26.348;2024-03-22T11:21:07;1.83;;;1.57;;
34565;SDS011;20803;42.676;26.348;2024-03-22T11:23:34;1.93;;;1.73;;
34565;SDS011;20803;42.676;26.348;2024-03-22T11:26:02;2.17;;;1.87;;
34565;SDS011;20803;42.676;26.348;2024-03-22T11:28:28;2.40;;;1.60;;
34565;SDS011;20803;42.676;26.348;2024-03-22T11:30:54;1.90;;;1.50;;
34565;SDS011;20803;42.676;26.348;2024-03-22T11:33:19;1.63;;;1.50;;
34565;SDS011;20803;42.676;26.348;2024-03-22T11:35:45;1.60;;;1.50;;
34565;SDS011;20803;42.676;26.348;2024-03-22T11:38:10;1.70;;;1.60;;
34565;SDS011;20803;42.676;26.348;2024-03-22T11:40:36;2.63;;;1.80;;
34565;SDS011;20803;42.676;26.348;2024-03-22T11:43:03;2.93;;;1.80;;
34565;SDS011;20803;42.676;26.348;2024-03-22T11:45:30;1.73;;;1.60;;
34565;SDS011;20803;42.676;26.348;2024-03-22T11:48:01;2.23;;;1.53;;
34565;SDS011;20803;42.676;26.348;2024-03-22T11:50:27;2.50;;;1.80;;
34565;SDS011;20803;42.676;26.348;2024-03-22T11:52:53;2.47;;;1.70;;
34565;SDS011;20803;42.676;26.348;2024-03-22T11:55:18;2.03;;;1.70;;
34565;SDS011;20803;42.676;26.348;2024-03-22T11:57:47;3.37;;;2.00;;
34565;SDS011;20803;42.676;26.348;2024-03-22T12:00:14;2.70;;;2.20;;
34565;SDS011;20803;42.676;26.348;2024-03-22T12:02:40;2.53;;;2.03;;
34565;SDS011;20803;42.676;26.348;2024-03-22T12:05:07;2.57;;;2.10;;
34565;SDS011;20803;42.676;26.348;2024-03-22T12:07:32;2.60;;;1.87;;
34565;SDS011;20803;42.676;26.348;2024-03-22T12:09:59;2.90;;;1.60;;
34565;SDS011;20803;42.676;26.348;2024-03-22T12:12:25;2.20;;;1.90;;
34565;SDS011;20803;42.676;26.348;2024-03-22T12:14:51;2.00;;;1.80;;
34565;SDS011;20803;42.676;26.348;2024-03-22T12:17:17;1.83;;;1.63;;
34565;SDS011;20803;42.676;26.348;2024-03-22T12:19:43;3.93;;;1.83;;
34565;SDS011;20803;42.676;26.348;2024-03-22T12:22:09;2.93;;;1.63;;
34565;SDS011;20803;42.676;26.348;2024-03-22T12:24:35;3.57;;;1.90;;
34565;SDS011;20803;42.676;26.348;2024-03-22T12:27:03;2.77;;;1.90;;
34565;SDS011;20803;42.676;26.348;2024-03-22T12:29:28;3.00;;;1.60;;
34565;SDS011;20803;42.676;26.348;2024-03-22T12:31:54;2.23;;;2.03;;
34565;SDS011;20803;42.676;26.348;2024-03-22T12:34:20;2.00;;;1.80;;
34565;SDS011;20803;42.676;26.348;2024-03-22T12:36:45;1.70;;;1.50;;
34565;SDS011;20803;42.676;26.348;2024-03-22T12:39:11;1.90;;;1.70;;
34565;SDS011;20803;42.676;26.348;2024-03-22T12:41:36;2.27;;;1.77;;
34565;SDS011;20803;42.676;26.348;2024-03-22T12:44:02;2.53;;;1.80;;
34565;SDS011;20803;42.676;26.348;2024-03-22T12:46:28;1.97;;;1.77;;
34565;SDS011;20803;42.676;26.348;2024-03-22T12:48:54;2.23;;;1.90;;
34565;SDS011;20803;42.676;26.348;2024-03-22T12:51:20;3.77;;;2.00;;
34565;SDS011;20803;42.676;26.348;2024-03-22T12:53:45;1.80;;;1.60;;
34565;SDS011;20803;42.676;26.348;2024-03-22T12:56:11;1.50;;;1.40;;
34565;SDS011;20803;42.676;26.348;2024-03-22T12:58:38;1.93;;;1.70;;
34565;SDS011;20803;42.676;26.348;2024-03-22T13:01:04;2.27;;;2.00;;
34565;SDS011;20803;42.676;26.348;2024-03-22T13:03:31;2.10;;;1.73;;
34565;SDS011;20803;42.676;26.348;2024-03-22T13:05:58;2.23;;;2.03;;
34565;SDS011;20803;42.676;26.348;2024-03-22T13:08:23;1.60;;;1.50;;
34565;SDS011;20803;42.676;26.348;2024-03-22T13:10:49;2.10;;;1.70;;
34565;SDS011;20803;42.676;26.348;2024-03-22T13:13:15;2.53;;;1.70;;
34565;SDS011;20803;42.676;26.348;2024-03-22T13:15:41;2.77;;;1.90;;
34565;SDS011;20803;42.676;26.348;2024-03-22T13:18:07;4.70;;;2.10;;
34565;SDS011;20803;42.676;26.348;2024-03-22T13:20:35;1.93;;;1.73;;
34565;SDS011;20803;42.676;26.348;2024-03-22T13:23:01;2.10;;;1.90;;
34565;SDS011;20803;42.676;26.348;2024-03-22T13:25:26;2.40;;;1.80;;
34565;SDS011;20803;42.676;26.348;2024-03-22T13:27:52;3.43;;;2.00;;
34565;SDS011;20803;42.676;26.348;2024-03-22T13:30:18;2.53;;;1.93;;
34565;SDS011;20803;42.676;26.348;2024-03-22T13:32:43;3.67;;;2.00;;
34565;SDS011;20803;42.676;26.348;2024-03-22T13:35:10;2.20;;;2.00;;
34565;SDS011;20803;42.676;26.348;2024-03-22T13:37:35;2.27;;;2.03;;
34565;SDS011;20803;42.676;26.348;2024-03-22T13:40:01;2.33;;;2.13;;
34565;SDS011;20803;42.676;26.348;2024-03-22T13:42:27;2.30;;;2.10;;
34565;SDS011;20803;42.676;26.348;2024-03-22T13:44:52;2.27;;;2.03;;
34565;SDS011;20803;42.676;26.348;2024-03-22T13:47:18;2.93;;;2.37;;
34565;SDS011;20803;42.676;26.348;2024-03-22T13:49:43;5.70;;;2.20;;
34565;SDS011;20803;42.676;26.348;2024-03-22T13:52:10;2.73;;;2.20;;
34565;SDS011;20803;42.676;26.348;2024-03-22T13:54:36;2.10;;;1.90;;
34565;SDS011;20803;42.676;26.348;2024-03-22T13:57:01;2.90;;;1.90;;
34565;SDS011;20803;42.676;26.348;2024-03-22T13:59:27;2.30;;;1.90;;
34565;SDS011;20803;42.676;26.348;2024-03-22T14:01:53;2.27;;;2.07;;
34565;SDS011;20803;42.676;26.348;2024-03-22T14:04:19;1.90;;;1.70;;
34565;SDS011;20803;42.676;26.348;2024-03-22T14:06:44;2.33;;;1.97;;
34565;SDS011;20803;42.676;26.348;2024-03-22T14:09:10;2.40;;;1.97;;
34565;SDS011;20803;42.676;26.348;2024-03-22T14:11:38;2.30;;;2.10;;
34565;SDS011;20803;42.676;26.348;2024-03-22T14:14:04;2.43;;;1.90;;
34565;SDS011;20803;42.676;26.348;2024-03-22T14:16:29;2.80;;;2.10;;
34565;SDS011;20803;42.676;26.348;2024-03-22T14:18:55;2.33;;;1.87;;
34565;SDS011;20803;42.676;26.348;2024-03-22T14:21:21;2.17;;;1.97;;
34565;SDS011;20803;42.676;26.348;2024-03-22T14:23:47;2.10;;;1.90;;
34565;SDS011;20803;42.676;26.348;2024-03-22T14:26:14;3.50;;;2.40;;